Time;durP1;ratioP1;P1;durP2;ratioP2;P2;SDS_P1;SDS_P2;PMS_P1;PMS_P2;Temp;Humidity;BMP_temperature;BMP_pressure;BME280_temperature;BME280_humidity;BME280_pressure;Samples;Min_cycle;Max_cycle;Signal;HPM_P1;HPM_P2
2022/06/26 00:00:21;;;;;;;10.80;6.40;;;;;;;16.49;72.00;99026.98;105076;1271;62079;-25
2022/06/26 00:02:48;;;;;;;11.80;6.30;;;;;;;16.52;71.78;99037.69;105035;1271;62805;-24
2022/06/26 00:05:15;;;;;;;10.20;7.10;;;;;;;16.30;72.59;99036.67;104772;1271;76578;-23
2022/06/26 00:07:43;;;;;;;12.30;7.40;;;;;;;16.03;72.53;99033.39;104787;1271;75782;-24
2022/06/26 00:10:10;;;;;;;9.80;7.00;;;;;;;15.78;73.01;99035.23;104798;1271;74131;-24
2022/06/26 00:12:37;;;;;;;9.40;6.60;;;;;;;15.54;73.04;99036.97;104803;1271;63080;-24
2022/06/26 00:15:05;;;;;;;9.20;5.20;;;;;;;15.30;73.60;99033.27;104929;1271;63124;-23
2022/06/26 00:17:32;;;;;;;7.20;4.60;;;;;;;15.67;73.95;99034.40;104964;1271;76667;-23
2022/06/26 00:20:00;;;;;;;6.30;4.70;;;;;;;16.22;73.06;99034.22;105106;1270;75178;-25
2022/06/26 00:22:27;;;;;;;6.80;5.00;;;;;;;16.31;72.58;99037.70;105105;1271;75514;-25
2022/06/26 00:24:55;;;;;;;8.00;6.70;;;;;;;16.14;71.51;99033.94;105144;1271;61647;-25
2022/06/26 00:27:22;;;;;;;11.90;6.80;;;;;;;15.84;72.47;99039.15;105104;1271;61818;-25
2022/06/26 00:29:49;;;;;;;7.50;6.00;;;;;;;15.60;73.65;99042.67;105125;1271;75491;-24
2022/06/26 00:32:16;;;;;;;5.70;4.30;;;;;;;15.39;74.78;99041.11;105005;1271;75432;-25
2022/06/26 00:34:44;;;;;;;9.90;4.60;;;;;;;15.76;73.68;99039.66;104739;1271;75378;-24
2022/06/26 00:37:11;;;;;;;8.30;5.00;;;;;;;16.23;72.15;99031.50;104768;1271;62887;-24
2022/06/26 00:39:38;;;;;;;12.50;5.80;;;;;;;16.21;71.74;99032.97;104841;1271;63188;-25
2022/06/26 00:42:06;;;;;;;5.90;5.20;;;;;;;15.92;72.55;99034.83;105022;1271;76282;-24
2022/06/26 00:44:33;;;;;;;8.20;5.70;;;;;;;15.59;73.13;99034.48;105073;1271;75720;-24
2022/06/26 00:47:00;;;;;;;7.70;5.40;;;;;;;15.31;74.11;99037.70;104695;1274;75534;-24
2022/06/26 00:49:28;;;;;;;6.50;5.10;;;;;;;15.07;74.32;99039.05;104962;1271;61719;-24
2022/06/26 00:51:55;;;;;;;5.00;3.40;;;;;;;14.86;74.88;99039.39;105193;1271;62980;-24
2022/06/26 00:54:24;;;;;;;4.20;3.10;;;;;;;15.26;74.54;99040.64;104966;1272;76351;-24
2022/06/26 00:56:52;;;;;;;6.30;3.80;;;;;;;15.77;72.14;99041.44;104834;1271;76825;-24
2022/06/26 00:59:19;;;;;;;5.70;4.10;;;;;;;15.81;72.64;99042.08;104969;1274;73746;-24
2022/06/26 01:01:46;;;;;;;6.50;4.40;;;;;;;15.68;72.48;99040.58;105076;1271;62923;-24
2022/06/26 01:04:14;;;;;;;5.60;3.60;;;;;;;15.48;72.47;99039.02;105168;1271;62955;-24
2022/06/26 01:06:41;;;;;;;6.20;4.40;;;;;;;15.20;72.65;99038.84;105084;1271;76307;-25
2022/06/26 01:09:10;;;;;;;6.50;4.20;;;;;;;14.95;73.18;99038.02;104992;1271;75853;-24
2022/06/26 01:11:37;;;;;;;4.80;2.60;;;;;;;14.77;74.07;99038.20;104885;1271;75359;-24
2022/06/26 01:14:05;;;;;;;6.20;2.90;;;;;;;15.13;73.41;99036.86;105122;1271;62057;-24
2022/06/26 01:16:33;;;;;;;3.90;3.00;;;;;;;15.51;73.18;99036.54;105145;1271;63092;-25
2022/06/26 01:19:01;;;;;;;4.70;3.60;;;;;;;15.49;73.37;99038.85;105059;1271;75519;-24
2022/06/26 01:21:30;;;;;;;6.80;3.80;;;;;;;15.29;73.58;99042.69;104723;1272;75935;-24
2022/06/26 01:23:57;;;;;;;6.90;4.00;;;;;;;14.97;73.99;99044.43;104714;1272;75455;-24
2022/06/26 01:26:24;;;;;;;4.90;4.40;;;;;;;14.60;75.31;99044.04;104944;1271;61178;-24
2022/06/26 01:28:52;;;;;;;5.50;3.60;;;;;;;14.31;75.20;99048.39;105082;1271;63050;-24
2022/06/26 01:31:20;;;;;;;3.10;2.20;;;;;;;14.11;76.14;99051.69;104849;1271;76622;-24
2022/06/26 01:33:48;;;;;;;3.40;2.80;;;;;;;14.51;75.96;99051.20;105090;1272;75894;-24
2022/06/26 01:36:16;;;;;;;4.10;2.90;;;;;;;15.02;74.15;99056.40;104573;1271;75176;-25
2022/06/26 01:38:43;;;;;;;3.90;3.00;;;;;;;15.05;73.75;99057.40;105113;1271;62013;-25
2022/06/26 01:41:10;;;;;;;4.80;3.40;;;;;;;14.87;74.13;99059.09;105087;1271;63061;-25
2022/06/26 01:43:38;;;;;;;5.30;3.70;;;;;;;14.60;75.24;99058.71;105129;1270;76568;-25
2022/06/26 01:46:05;;;;;;;8.00;4.00;;;;;;;14.33;76.32;99060.60;105114;1271;75740;-25
2022/06/26 01:48:37;;;;;;;6.30;2.20;;;;;;;14.11;77.59;99062.33;105114;1271;75257;-25
2022/06/26 01:51:06;;;;;;;4.80;2.10;;;;;;;14.51;76.90;99059.71;105125;1271;63294;-25
2022/06/26 01:53:35;;;;;;;9.50;2.50;;;;;;;14.95;74.57;99060.23;105020;1271;61087;-25
2022/06/26 01:56:04;;;;;;;3.00;2.70;;;;;;;14.91;74.03;99057.64;105064;1271;76465;-25
2022/06/26 01:58:34;;;;;;;2.70;2.40;;;;;;;14.69;74.10;99060.15;104606;1271;77439;-25
2022/06/26 02:01:07;;;;;;;4.20;2.70;;;;;;;14.39;74.30;99065.43;104814;1271;75362;-25
2022/06/26 02:03:35;;;;;;;4.50;3.20;;;;;;;14.12;75.32;99067.69;104777;1271;62832;-25
2022/06/26 02:06:02;;;;;;;3.10;2.70;;;;;;;13.93;78.00;99071.02;104811;1271;63280;-25
2022/06/26 02:08:30;;;;;;;4.10;2.50;;;;;;;14.35;77.87;99071.06;104903;1271;76735;-25
2022/06/26 02:13:44;;;;;;;5.10;2.80;;;;;;;15.06;73.52;99070.09;104766;1271;75441;-25
2022/06/26 02:16:22;;;;;;;4.30;2.60;;;;;;;14.93;73.64;99072.92;104839;1271;63207;-25
2022/06/26 02:18:51;;;;;;;4.90;3.20;;;;;;;14.75;73.97;99072.65;104779;1271;63052;-25
2022/06/26 02:21:20;;;;;;;4.00;3.00;;;;;;;14.58;74.26;99073.59;104675;1273;76504;-25
2022/06/26 02:23:48;;;;;;;3.50;2.00;;;;;;;14.44;74.82;99077.17;104639;1271;75915;-25
2022/06/26 02:26:17;;;;;;;4.50;2.50;;;;;;;14.90;74.42;99079.38;104679;1271;75493;-25
2022/06/26 02:28:45;;;;;;;3.90;2.60;;;;;;;15.46;72.39;99080.59;104895;1271;62965;-25
2022/06/26 02:31:12;;;;;;;2.80;2.40;;;;;;;15.68;71.58;99089.13;104676;1270;61121;-25
2022/06/26 02:33:40;;;;;;;3.30;2.60;;;;;;;15.69;71.44;99092.33;104767;1271;76608;-25
2022/06/26 02:36:07;;;;;;;4.70;3.00;;;;;;;15.61;71.57;99095.92;104820;1271;75864;-25
2022/06/26 02:38:38;;;;;;;3.80;3.40;;;;;;;15.41;72.16;99097.19;104629;1271;75418;-25
2022/06/26 02:41:05;;;;;;;8.10;3.60;;;;;;;15.15;72.35;99098.77;104847;1271;62008;-25
2022/06/26 02:43:33;;;;;;;5.60;2.30;;;;;;;14.99;72.89;99100.14;104840;1271;63102;-25
2022/06/26 02:46:03;;;;;;;4.30;2.40;;;;;;;15.52;72.72;99099.93;104888;1271;75348;-26
2022/06/26 02:48:31;;;;;;;6.00;3.10;;;;;;;16.13;70.74;99104.63;104840;1271;77082;-25
2022/06/26 02:50:58;;;;;;;4.30;2.90;;;;;;;16.31;70.20;99105.66;105086;1271;75443;-25
2022/06/26 02:53:26;;;;;;;5.80;3.60;;;;;;;16.24;69.45;99109.13;104799;1271;63578;-25
2022/06/26 02:55:53;;;;;;;3.40;3.00;;;;;;;16.08;70.11;99104.67;105141;1271;62080;-25
2022/06/26 02:58:21;;;;;;;3.30;2.80;;;;;;;15.99;70.36;99105.70;105102;1271;75445;-25
2022/06/26 03:01:06;;;;;;;4.90;3.10;;;;;;;15.95;70.63;99106.17;105100;1271;75547;-25
2022/06/26 03:03:34;;;;;;;6.40;2.70;;;;;;;15.80;70.84;99106.29;105128;1271;73415;-25
2022/06/26 03:06:02;;;;;;;4.60;2.50;;;;;;;16.20;71.07;99109.36;105068;1271;63148;-25
2022/06/26 03:08:29;;;;;;;4.90;2.50;;;;;;;16.67;69.07;99111.16;104809;1271;61786;-25
2022/06/26 03:10:56;;;;;;;7.50;3.70;;;;;;;16.60;68.86;99112.73;104976;1271;75612;-25
2022/06/26 03:13:24;;;;;;;4.10;3.60;;;;;;;16.33;69.88;99117.98;105095;1271;77010;-25
2022/06/26 03:15:51;;;;;;;10.50;4.20;;;;;;;15.71;71.95;99117.11;104986;1271;74217;-25
2022/06/26 03:18:19;;;;;;;9.00;4.10;;;;;;;15.41;73.65;99119.64;104718;1271;63032;-25
2022/06/26 03:20:46;;;;;;;6.10;3.70;;;;;;;15.07;74.66;99121.08;104844;1271;61905;-25
2022/06/26 03:23:13;;;;;;;7.60;3.40;;;;;;;15.06;75.22;99125.36;104742;1271;76625;-25
2022/06/26 03:25:41;;;;;;;3.20;2.70;;;;;;;15.43;73.88;99128.46;104862;1271;75083;-25
2022/06/26 03:28:09;;;;;;;7.90;3.40;;;;;;;16.13;71.09;99129.73;104822;1271;75524;-25
2022/06/26 03:30:39;;;;;;;6.50;3.80;;;;;;;16.26;70.54;99132.41;104946;1269;61665;-25
2022/06/26 03:33:07;;;;;;;4.70;3.70;;;;;;;16.52;69.87;99132.56;104796;1271;63150;-25
2022/06/26 03:35:35;;;;;;;5.20;3.90;;;;;;;16.47;69.47;99131.08;105157;1271;76633;-25
2022/06/26 03:38:03;;;;;;;7.40;3.40;;;;;;;16.72;68.45;99131.84;105140;1271;77006;-25
2022/06/26 03:40:30;;;;;;;5.10;4.40;;;;;;;16.83;68.18;99131.58;105079;1271;74277;-25
2022/06/26 03:42:58;;;;;;;5.50;3.30;;;;;;;17.13;67.72;99132.79;105137;1271;64481;-25
2022/06/26 03:45:27;;;;;;;5.60;3.30;;;;;;;17.85;65.58;99134.85;105056;1271;61199;-25
2022/06/26 03:47:54;;;;;;;6.10;3.50;;;;;;;18.21;63.72;99130.73;104728;1271;76711;-25
2022/06/26 03:50:21;;;;;;;4.50;3.50;;;;;;;18.55;63.39;99130.20;104811;1271;76959;-25
2022/06/26 03:52:49;;;;;;;5.10;3.80;;;;;;;18.78;62.66;99132.54;104822;1271;74302;-25
2022/06/26 03:55:17;;;;;;;8.60;4.40;;;;;;;18.91;62.07;99133.59;104764;1271;62864;-25
2022/06/26 03:57:44;;;;;;;6.30;3.50;;;;;;;18.91;62.18;99132.13;104828;1271;61489;-25
2022/06/26 04:00:12;;;;;;;6.10;4.10;;;;;;;19.05;61.56;99133.38;104820;1271;76262;-25
2022/06/26 04:02:42;;;;;;;8.70;3.90;;;;;;;19.15;61.54;99132.58;104676;1271;77141;-25
2022/06/26 04:05:13;;;;;;;7.40;3.80;;;;;;;19.19;61.34;99136.30;104924;1271;73699;-25
2022/06/26 04:07:41;;;;;;;4.90;4.00;;;;;;;19.17;61.84;99138.53;104842;1271;61268;-25
2022/06/26 04:10:23;;;;;;;9.80;3.70;;;;;;;19.47;62.00;99137.44;104966;1271;62966;-25
2022/06/26 04:12:50;;;;;;;5.90;3.90;;;;;;;19.71;60.94;99141.48;104857;1270;76569;-25
2022/06/26 04:15:18;;;;;;;6.20;4.00;;;;;;;20.01;61.01;99146.44;104705;1274;75261;-25
2022/06/26 04:17:45;;;;;;;6.90;4.60;;;;;;;20.36;60.39;99147.98;104839;1271;74077;-26
2022/06/26 04:20:14;;;;;;;7.40;5.30;;;;;;;20.63;58.91;99151.93;104925;1271;63176;-25
2022/06/26 04:22:56;;;;;;;7.90;5.30;;;;;;;20.80;58.96;99149.51;104607;1271;277306;-25
2022/06/26 04:25:24;;;;;;;7.20;5.80;;;;;;;21.07;58.21;99147.67;104652;1271;76602;-25
2022/06/26 04:27:52;;;;;;;9.70;6.70;;;;;;;21.32;58.53;99151.61;104734;1271;75757;-25
2022/06/26 04:30:20;;;;;;;13.40;9.00;;;;;;;21.55;57.71;99147.15;104783;1271;75658;-25
2022/06/26 04:32:47;;;;;;;12.80;9.70;;;;;;;21.71;57.34;99151.35;104810;1271;61693;-25
2022/06/26 04:35:15;;;;;;;18.80;13.20;;;;;;;21.87;56.90;99151.96;104937;1271;61385;-25
2022/06/26 04:37:43;;;;;;;19.60;12.60;;;;;;;21.69;56.01;99148.59;104991;1271;75500;-25
2022/06/26 04:40:11;;;;;;;13.00;9.70;;;;;;;21.90;56.28;99152.18;104824;1271;75534;-25
2022/06/26 04:42:40;;;;;;;12.40;9.70;;;;;;;22.27;56.62;99153.42;104650;1271;75459;-25
2022/06/26 04:45:08;;;;;;;14.40;10.80;;;;;;;22.56;56.48;99157.16;104898;1271;63472;-25
2022/06/26 04:47:35;;;;;;;14.10;8.40;;;;;;;22.89;55.24;99157.66;104689;1271;61517;-25
2022/06/26 04:50:15;;;;;;;12.90;9.50;;;;;;;23.20;54.29;99159.23;105016;1271;75268;-24
2022/06/26 04:52:46;;;;;;;8.80;7.00;;;;;;;23.36;53.94;99159.66;104805;1272;75764;-24
2022/06/26 04:55:14;;;;;;;7.50;6.00;;;;;;;23.46;52.91;99159.19;104655;1271;75474;-25
2022/06/26 04:57:44;;;;;;;7.50;5.30;;;;;;;23.60;53.16;99159.65;104860;1271;62994;-24
2022/06/26 05:00:13;;;;;;;6.50;5.20;;;;;;;23.82;53.03;99157.19;104874;1271;62066;-24
2022/06/26 05:03:06;;;;;;;6.70;5.10;;;;;;;23.94;52.52;99161.73;104616;1271;74803;-24
2022/06/26 05:05:41;;;;;;;7.60;4.40;;;;;;;24.11;52.49;99166.07;104892;1271;75922;-25
2022/06/26 05:08:19;;;;;;;5.60;3.00;;;;;;;23.91;51.20;99162.80;104796;1271;75274;-24
2022/06/26 05:10:47;;;;;;;4.90;3.70;;;;;;;23.32;52.71;99169.44;104859;1271;63206;-24
2022/06/26 05:13:14;;;;;;;4.40;2.40;;;;;;;23.69;52.66;99163.56;104708;1274;62988;-24
2022/06/26 05:15:41;;;;;;;4.70;3.50;;;;;;;23.77;51.57;99164.23;104748;1271;76100;-24
2022/06/26 05:18:10;;;;;;;3.60;3.10;;;;;;;23.40;52.70;99162.46;104872;1272;76993;-24
2022/06/26 05:20:37;;;;;;;7.50;3.20;;;;;;;23.55;52.03;99160.44;104795;1271;75267;-24
2022/06/26 05:23:07;;;;;;;4.10;3.00;;;;;;;23.38;52.03;99161.59;104760;1271;62832;-24
2022/06/26 05:25:42;;;;;;;3.60;2.60;;;;;;;22.92;52.66;99166.81;104794;1271;62023;-24
2022/06/26 05:28:10;;;;;;;4.20;3.20;;;;;;;23.22;52.62;99166.35;104887;1271;75608;-24
2022/06/26 05:30:38;;;;;;;3.00;2.70;;;;;;;22.92;53.08;99168.01;104877;1271;77431;-25
2022/06/26 05:33:08;;;;;;;3.60;3.30;;;;;;;22.69;53.85;99169.16;104706;1274;75525;-24
2022/06/26 05:35:36;;;;;;;5.70;2.80;;;;;;;22.89;53.82;99164.69;104570;1274;63093;-24
2022/06/26 05:38:03;;;;;;;5.00;2.60;;;;;;;23.26;52.67;99162.70;104792;1274;62767;-23
2022/06/26 05:40:30;;;;;;;7.40;2.90;;;;;;;23.04;53.01;99164.45;104796;1271;75380;-24
2022/06/26 05:42:58;;;;;;;4.50;2.40;;;;;;;23.55;52.21;99160.15;104903;1271;77022;-24
2022/06/26 05:45:26;;;;;;;3.00;2.30;;;;;;;23.65;51.06;99160.70;105050;1274;73767;-24
2022/06/26 05:48:16;;;;;;;6.10;2.70;;;;;;;24.15;50.62;99160.40;105021;1271;61831;-24
2022/06/26 05:51:03;;;;;;;5.00;3.20;;;;;;;23.81;51.27;99164.22;104799;1271;62943;-25
2022/06/26 05:53:35;;;;;;;3.20;2.90;;;;;;;23.32;52.35;99168.23;104795;1271;76537;-25
2022/06/26 05:56:25;;;;;;;3.70;2.60;;;;;;;23.46;52.46;99168.70;104709;1274;75998;-24
2022/06/26 05:59:11;;;;;;;6.10;2.70;;;;;;;23.77;51.54;99164.98;104979;1271;75273;-24
2022/06/26 06:02:02;;;;;;;4.40;2.90;;;;;;;24.03;50.39;99162.85;105089;1271;62055;-24
2022/06/26 06:04:30;;;;;;;3.70;2.60;;;;;;;23.99;50.90;99165.48;104785;1274;61322;-24
2022/06/26 06:07:00;;;;;;;6.10;3.10;;;;;;;24.52;49.89;99162.05;104717;1271;76559;-24
2022/06/26 06:09:28;;;;;;;5.90;3.00;;;;;;;24.46;49.93;99163.07;104847;1271;76774;-24
2022/06/26 06:11:55;;;;;;;4.00;3.00;;;;;;;24.49;50.05;99163.22;104595;1274;75103;-24
2022/06/26 06:14:23;;;;;;;4.10;3.30;;;;;;;24.75;49.52;99165.45;104790;1271;62866;-25
2022/06/26 06:16:50;;;;;;;6.70;3.00;;;;;;;24.77;50.01;99168.02;104833;1271;63127;-24
2022/06/26 06:19:19;;;;;;;2.80;2.60;;;;;;;24.73;50.63;99172.95;104842;1271;76538;-23
2022/06/26 06:21:47;;;;;;;3.10;2.80;;;;;;;24.65;50.54;99176.20;104721;1271;76715;-24
2022/06/26 06:24:14;;;;;;;4.80;2.90;;;;;;;24.76;50.89;99176.83;104684;1271;75680;-24
2022/06/26 06:26:41;;;;;;;2.90;2.60;;;;;;;25.02;50.08;99178.09;104709;1271;63059;-24
2022/06/26 06:29:12;;;;;;;6.30;2.60;;;;;;;25.18;50.46;99176.53;104841;1271;62215;-24
2022/06/26 06:31:39;;;;;;;3.90;2.80;;;;;;;25.45;49.75;99177.83;104794;1271;76562;-24
2022/06/26 06:34:08;;;;;;;2.90;2.50;;;;;;;25.85;49.43;99181.44;104782;1271;75912;-24
2022/06/26 06:36:36;;;;;;;3.60;2.00;;;;;;;25.93;47.51;99177.59;104632;1271;75857;-24
2022/06/26 06:39:04;;;;;;;4.50;2.30;;;;;;;25.39;47.35;99177.25;104792;1271;61980;-24
2022/06/26 06:41:32;;;;;;;3.40;2.40;;;;;;;25.30;48.21;99174.48;104742;1271;62744;-24
2022/06/26 06:44:03;;;;;;;3.10;2.30;;;;;;;25.37;48.98;99178.21;104740;1272;76389;-24
2022/06/26 06:46:31;;;;;;;4.30;2.40;;;;;;;25.60;48.09;99174.52;104635;1274;76919;-24
2022/06/26 06:49:14;;;;;;;4.30;2.10;;;;;;;25.76;45.72;99176.25;104691;1274;75195;-24
2022/06/26 06:51:51;;;;;;;2.10;1.80;;;;;;;25.80;45.03;99176.48;105011;1271;61887;-24
2022/06/26 06:54:18;;;;;;;4.10;2.30;;;;;;;26.29;43.71;99178.70;104913;1271;62918;-24
2022/06/26 06:56:46;;;;;;;5.40;1.90;;;;;;;26.10;43.47;99178.27;104810;1271;76550;-24
2022/06/26 06:59:13;;;;;;;2.60;2.20;;;;;;;26.36;43.16;99178.85;104808;1271;75095;-24
2022/06/26 07:01:42;;;;;;;2.40;1.80;;;;;;;26.42;43.01;99180.27;104975;1271;74831;-24
2022/06/26 07:04:10;;;;;;;2.40;1.30;;;;;;;26.81;42.67;99180.16;104760;1271;61730;-24
2022/06/26 07:06:37;;;;;;;5.40;1.70;;;;;;;27.11;41.21;99173.95;104708;1274;63092;-24
2022/06/26 07:09:05;;;;;;;2.90;1.60;;;;;;;27.19;40.75;99172.00;104709;1271;76374;-24
2022/06/26 07:11:32;;;;;;;2.30;1.80;;;;;;;27.23;40.48;99174.13;104765;1271;76858;-24
2022/06/26 07:14:00;;;;;;;3.20;1.70;;;;;;;27.02;41.01;99176.35;104861;1271;74384;-24
2022/06/26 07:16:27;;;;;;;2.60;1.80;;;;;;;27.24;41.43;99179.45;104699;1271;63439;-23
2022/06/26 07:18:55;;;;;;;2.70;1.60;;;;;;;27.40;40.60;99176.41;104706;1271;62912;-24
2022/06/26 07:21:22;;;;;;;2.20;2.00;;;;;;;27.40;40.65;99178.77;104709;1271;76557;-24
2022/06/26 07:23:50;;;;;;;5.80;2.20;;;;;;;27.33;40.24;99179.10;104773;1272;76040;-24
2022/06/26 07:26:37;;;;;;;3.30;1.90;;;;;;;26.94;40.91;99180.95;104461;1271;75623;-24
2022/06/26 07:29:06;;;;;;;4.10;2.10;;;;;;;26.46;41.56;99179.52;104775;1271;63189;-24
2022/06/26 07:31:39;;;;;;;2.50;1.70;;;;;;;26.28;42.28;99181.81;104566;1274;63053;-24
2022/06/26 07:34:13;;;;;;;3.00;1.80;;;;;;;26.76;41.58;99184.47;104709;1274;76383;-24
2022/06/26 07:36:41;;;;;;;;;;;;;;;27.10;40.54;99182.90;104785;1271;76569;-25
2022/06/26 07:39:10;;;;;;;1.60;1.50;;;;;;;26.80;41.34;99182.81;104740;1271;74823;-24
2022/06/26 07:41:38;;;;;;;6.80;1.80;;;;;;;27.09;41.34;99181.42;104656;1274;62756;-24
2022/06/26 07:44:06;;;;;;;9.70;2.20;;;;;;;26.59;41.43;99183.35;104709;1271;63162;-25
2022/06/26 07:46:36;;;;;;;1.80;1.70;;;;;;;26.74;41.11;99179.11;104631;1274;76332;-25
2022/06/26 07:49:06;;;;;;;2.80;2.20;;;;;;;26.64;41.55;99179.03;104811;1271;77066;-24
2022/06/26 07:51:34;;;;;;;2.00;1.60;;;;;;;26.79;40.99;99176.89;104664;1271;75369;-24
2022/06/26 07:54:01;;;;;;;2.70;1.80;;;;;;;26.58;40.72;99180.04;104816;1271;63061;-24
2022/06/26 07:56:28;;;;;;;2.90;1.80;;;;;;;26.94;40.06;99187.95;104797;1271;61804;-25
2022/06/26 07:58:56;;;;;;;2.90;1.50;;;;;;;27.34;39.35;99184.31;104707;1271;75559;-24
2022/06/26 08:01:23;;;;;;;4.10;2.50;;;;;;;27.63;39.23;99182.52;104829;1271;76034;-25
2022/06/26 08:03:50;;;;;;;4.90;2.10;;;;;;;27.75;39.48;99183.05;104753;1271;75128;-25
2022/06/26 08:06:19;;;;;;;2.20;1.60;;;;;;;27.43;39.42;99186.12;104771;1271;62104;-25
2022/06/26 08:08:46;;;;;;;3.20;2.50;;;;;;;27.38;40.18;99183.94;105039;1271;63417;-24
2022/06/26 08:11:14;;;;;;;4.30;1.80;;;;;;;26.94;41.41;99184.78;104876;1271;75285;-25
2022/06/26 08:13:41;;;;;;;3.90;1.90;;;;;;;26.70;41.71;99187.52;104795;1271;76085;-23
2022/06/26 08:16:08;;;;;;;2.40;1.50;;;;;;;27.02;41.61;99183.88;104731;1271;74574;-24
2022/06/26 08:18:36;;;;;;;4.10;3.70;;;;;;;27.22;40.85;99182.54;104747;1271;63081;-24
2022/06/26 08:23:49;;;;;;;5.10;2.60;;;;;;;26.76;41.59;99181.27;104688;1271;76825;-24
2022/06/26 08:26:17;;;;;;;3.10;2.10;;;;;;;27.26;41.42;99181.39;104885;1271;77109;-24
2022/06/26 08:28:44;;;;;;;3.80;3.40;;;;;;;27.13;38.31;99182.23;104817;1271;74266;-24
2022/06/26 08:31:12;;;;;;;2.00;1.70;;;;;;;26.80;39.40;99181.94;104756;1271;61826;-24
2022/06/26 08:33:39;;;;;;;15.10;11.70;;;;;;;26.97;39.78;99182.48;104839;1271;62109;-23
2022/06/26 08:36:07;;;;;;;14.40;13.00;;;;;;;26.88;39.40;99183.80;104681;1274;75564;-24
2022/06/26 08:38:34;;;;;;;4.40;3.30;;;;;;;27.53;39.62;99186.20;104805;1271;74838;-24
2022/06/26 08:41:01;;;;;;;4.70;2.20;;;;;;;28.06;37.68;99182.98;104733;1271;75107;-24
2022/06/26 08:43:28;;;;;;;4.60;2.20;;;;;;;28.37;37.82;99180.59;104773;1271;62360;-24
2022/06/26 08:46:00;;;;;;;3.70;3.20;;;;;;;28.64;37.25;99182.41;104795;1272;63071;-24
2022/06/26 08:48:27;;;;;;;1.80;1.60;;;;;;;28.49;37.21;99179.88;104737;1271;76511;-24
2022/06/26 08:50:55;;;;;;;5.30;2.20;;;;;;;27.86;38.29;99170.70;104913;1274;77101;-24
2022/06/26 08:53:22;;;;;;;3.50;1.80;;;;;;;28.24;37.97;99177.94;104870;1272;74584;-24
2022/06/26 08:55:50;;;;;;;3.20;1.60;;;;;;;28.38;37.10;99175.27;104801;1271;62994;-24
2022/06/26 08:58:17;;;;;;;8.20;2.30;;;;;;;28.75;37.07;99176.30;104776;1272;63018;-24
2022/06/26 09:00:46;;;;;;;2.20;1.90;;;;;;;28.79;36.83;99175.98;104740;1271;75652;-24
2022/06/26 09:03:15;;;;;;;3.40;1.80;;;;;;;28.44;37.98;99180.66;104793;1272;76340;-25
2022/06/26 09:05:42;;;;;;;6.00;1.70;;;;;;;28.14;37.49;99180.63;104666;1271;73437;-25
2022/06/26 09:08:19;;;;;;;4.10;2.60;;;;;;;27.75;38.39;99178.20;104708;1271;61221;-25
2022/06/26 09:10:48;;;;;;;42.80;5.50;;;;;;;27.20;40.60;99185.16;104744;1271;61871;-24
2022/06/26 09:13:15;;;;;;;3.20;2.60;;;;;;;27.60;41.30;99180.03;104644;1274;75509;-24
2022/06/26 09:15:43;;;;;;;6.20;2.20;;;;;;;27.72;40.39;99175.48;104971;1271;77142;-25
2022/06/26 09:18:11;;;;;;;6.80;4.90;;;;;;;28.03;38.83;99178.05;105149;1271;75163;-24
2022/06/26 09:20:52;;;;;;;5.20;4.30;;;;;;;27.63;39.43;99182.36;104681;1271;62799;-25
2022/06/26 09:23:20;;;;;;;2.60;1.80;;;;;;;27.56;40.31;99182.86;104435;1274;61302;-24
2022/06/26 09:25:48;;;;;;;8.80;7.30;;;;;;;27.26;40.20;99186.98;104867;1271;76525;-24
2022/06/26 09:28:20;;;;;;;7.30;4.00;;;;;;;27.13;40.33;99186.23;104890;1271;76712;-25
2022/06/26 09:30:54;;;;;;;4.90;2.60;;;;;;;27.37;40.75;99181.66;104910;1271;73355;-27
2022/06/26 09:33:26;;;;;;;5.70;4.50;;;;;;;27.54;39.35;99178.06;104818;1271;62054;-26
2022/06/26 09:35:53;;;;;;;3.90;2.70;;;;;;;27.40;39.12;99181.04;104932;1271;63017;-25
2022/06/26 09:38:25;;;;;;;5.10;3.20;;;;;;;27.45;39.24;99179.17;104870;1272;76906;-25
2022/06/26 09:40:54;;;;;;;4.90;4.10;;;;;;;27.03;39.00;99176.40;104808;1271;77125;-26
2022/06/26 09:43:35;;;;;;;5.20;3.70;;;;;;;26.55;40.06;99174.61;104664;1271;73111;-25
2022/06/26 09:46:08;;;;;;;3.90;3.00;;;;;;;26.24;40.85;99171.34;104769;1271;63338;-25
2022/06/26 09:48:35;;;;;;;5.60;3.30;;;;;;;26.68;40.51;99177.76;104755;1274;61873;-24
2022/06/26 09:51:05;;;;;;;2.10;1.80;;;;;;;27.20;39.76;99170.68;104765;1271;76564;-24
2022/06/26 09:53:32;;;;;;;13.10;11.20;;;;;;;27.29;39.01;99171.48;104762;1271;75982;-24
2022/06/26 09:56:00;;;;;;;4.60;2.60;;;;;;;27.51;39.17;99167.60;104772;1274;74514;-24
2022/06/26 09:58:28;;;;;;;2.40;2.10;;;;;;;28.03;39.34;99165.69;104793;1271;62179;-24
2022/06/26 10:06:31;;;;;;;5.60;3.10;;;;;;;28.95;36.55;99166.55;105085;1274;77024;-24
2022/06/26 10:09:07;;;;;;;3.20;2.40;;;;;;;28.54;37.41;99168.23;104908;1272;75162;-24
2022/06/26 10:11:35;;;;;;;7.50;2.60;;;;;;;28.96;36.58;99169.95;105108;1271;62594;-24
2022/06/26 10:14:18;;;;;;;4.80;2.20;;;;;;;28.29;38.12;99176.66;104655;1273;61719;-24
2022/06/26 10:17:23;;;;;;;3.40;2.10;;;;;;;26.97;40.13;99182.00;104801;1271;76154;-25
2022/06/26 10:19:57;;;;;;;4.10;1.90;;;;;;;26.53;41.36;99180.63;104784;1271;77452;-22
2022/06/26 10:22:24;;;;;;;3.10;1.60;;;;;;;26.54;41.47;99181.44;104698;1271;74079;-23
2022/06/26 10:24:56;;;;;;;3.80;2.10;;;;;;;26.28;41.27;99175.84;104794;1272;61642;-25
2022/06/26 10:27:24;;;;;;;2.60;2.00;;;;;;;26.90;40.20;99176.42;104712;1271;63127;-24
2022/06/26 10:30:05;;;;;;;7.20;4.90;;;;;;;27.27;40.08;99174.92;104688;1274;75566;-24
2022/06/26 10:32:33;;;;;;;2.90;2.30;;;;;;;27.27;39.41;99176.35;104742;1274;76712;-26
2022/06/26 10:35:00;;;;;;;3.10;1.90;;;;;;;27.36;39.92;99173.37;104815;1271;74461;-25
2022/06/26 10:37:27;;;;;;;5.00;2.00;;;;;;;27.64;38.98;99165.64;104772;1271;61389;-25
2022/06/26 10:39:55;;;;;;;3.10;1.70;;;;;;;28.25;38.09;99164.73;104652;1271;62849;-25
2022/06/26 10:45:28;;;;;;;2.30;1.60;;;;;;;29.61;34.58;99156.52;104761;1271;75820;-26
2022/06/26 10:47:58;;;;;;;5.30;2.60;;;;;;;29.93;34.48;99159.57;104755;1271;75509;-22
2022/06/26 10:50:30;;;;;;;2.40;1.90;;;;;;;29.50;35.14;99156.09;104669;1274;62014;-22
2022/06/26 10:53:17;;;;;;;4.20;1.90;;;;;;;28.61;36.59;99159.02;104707;1271;61949;-23
2022/06/26 10:55:47;;;;;;;2.80;1.60;;;;;;;28.55;37.17;99155.19;105154;1271;75482;-23
2022/06/26 10:58:24;;;;;;;2.80;2.00;;;;;;;28.49;36.92;99155.86;104937;1272;76785;-23
2022/06/26 11:00:53;;;;;;;3.80;1.50;;;;;;;28.31;37.85;99156.74;105062;1271;75513;-23
2022/06/26 11:03:21;;;;;;;6.70;2.00;;;;;;;28.84;37.17;99155.17;104685;1273;61768;-23
2022/06/26 11:05:59;;;;;;;2.60;1.50;;;;;;;29.00;38.28;99153.30;104830;1271;63072;-23
2022/06/26 11:08:27;;;;;;;3.10;1.70;;;;;;;28.79;37.38;99144.76;104756;1272;75413;-23
2022/06/26 11:11:01;;;;;;;5.00;1.60;;;;;;;29.35;35.62;99148.71;104714;1274;77132;-23
2022/06/26 11:13:28;;;;;;;1.80;1.60;;;;;;;29.45;35.64;99142.68;104734;1271;75440;-23
2022/06/26 11:15:55;;;;;;;2.10;1.60;;;;;;;30.01;35.48;99142.77;104738;1271;62999;-23
2022/06/26 11:18:22;;;;;;;1.80;1.40;;;;;;;30.15;33.83;99142.00;104813;1272;61750;-23
2022/06/26 11:20:51;;;;;;;8.70;5.00;;;;;;;29.73;33.73;99145.73;104730;1274;76569;-23
2022/06/26 11:23:26;;;;;;;1.90;1.70;;;;;;;29.56;34.65;99142.39;104594;1274;77233;-23
2022/06/26 11:26:01;;;;;;;3.90;2.20;;;;;;;29.73;34.64;99140.40;104635;1271;74036;-23
2022/06/26 11:28:34;;;;;;;2.50;1.90;;;;;;;30.44;33.82;99140.20;104731;1271;63078;-23
2022/06/26 11:31:03;;;;;;;12.00;2.10;;;;;;;30.20;32.60;99138.03;104720;1272;63025;-23
2022/06/26 11:33:33;;;;;;;6.20;2.00;;;;;;;29.90;33.78;99138.87;104710;1271;76434;-23
2022/06/26 11:36:08;;;;;;;12.20;6.50;;;;;;;29.36;34.61;99137.37;104656;1274;76002;-23
2022/06/26 11:38:35;;;;;;;3.60;1.90;;;;;;;29.77;34.65;99135.33;104636;1274;75303;-23
2022/06/26 11:41:04;;;;;;;1.90;1.70;;;;;;;29.71;35.21;99140.19;104756;1274;61957;-23
2022/06/26 11:43:32;;;;;;;2.10;1.70;;;;;;;29.47;35.06;99142.30;104880;1271;62314;-23
2022/06/26 11:46:01;;;;;;;3.70;1.80;;;;;;;29.43;35.34;99144.73;105114;1271;76635;-23
2022/06/26 11:48:29;;;;;;;4.30;1.60;;;;;;;29.52;35.77;99149.35;104896;1274;77455;-23